sensor_id;sensor_type;location;lat;lon;timestamp;pressure;altitude;pressure_sealevel;temperature;humidity
5126;BME280;63008;53.112;8.896;2023-01-25T00:00:05;103807.84;;;1.53;77.55
5126;BME280;63008;53.112;8.896;2023-01-25T00:02:06;103807.25;;;1.57;77.30
5126;BME280;63008;53.112;8.896;2023-01-25T00:04:07;103811.13;;;1.48;78.11
5126;BME280;63008;53.112;8.896;2023-01-25T00:06:08;103805.75;;;1.55;77.93
5126;BME280;63008;53.112;8.896;2023-01-25T00:08:09;103802.63;;;1.51;77.88
5126;BME280;63008;53.112;8.896;2023-01-25T00:10:10;103799.47;;;1.48;77.32
5126;BME280;63008;53.112;8.896;2023-01-25T00:12:11;103800.53;;;1.47;77.48
5126;BME280;63008;53.112;8.896;2023-01-25T00:14:13;103800.69;;;1.45;76.78
5126;BME280;63008;53.112;8.896;2023-01-25T00:16:14;103795.34;;;1.52;76.70
5126;BME280;63008;53.112;8.896;2023-01-25T00:18:15;103800.97;;;1.57;76.46
5126;BME280;63008;53.112;8.896;2023-01-25T00:20:16;103796.41;;;1.57;76.47
5126;BME280;63008;53.112;8.896;2023-01-25T00:22:17;103797.06;;;1.59;76.28
5126;BME280;63008;53.112;8.896;2023-01-25T00:24:18;103802.19;;;1.48;76.70
5126;BME280;63008;53.112;8.896;2023-01-25T00:26:22;103801.34;;;1.47;76.54
5126;BME280;63008;53.112;8.896;2023-01-25T00:28:23;103787.81;;;1.47;76.56
5126;BME280;63008;53.112;8.896;2023-01-25T00:30:24;103789.25;;;1.43;76.63
5126;BME280;63008;53.112;8.896;2023-01-25T00:32:45;103788.16;;;1.38;77.18
5126;BME280;63008;53.112;8.896;2023-01-25T00:34:48;103790.63;;;1.33;77.75
5126;BME280;63008;53.112;8.896;2023-01-25T00:36:54;103796.22;;;1.25;78.20
5126;BME280;63008;53.112;8.896;2023-01-25T00:38:56;103783.22;;;1.14;78.58
5126;BME280;63008;53.112;8.896;2023-01-25T00:40:57;103787.44;;;1.23;77.95
5126;BME280;63008;53.112;8.896;2023-01-25T00:42:58;103784.72;;;1.23;78.35
5126;BME280;63008;53.112;8.896;2023-01-25T00:45:00;103781.22;;;1.22;78.37
5126;BME280;63008;53.112;8.896;2023-01-25T00:47:01;103774.81;;;1.30;78.27
5126;BME280;63008;53.112;8.896;2023-01-25T00:49:02;103767.56;;;1.37;77.55
5126;BME280;63008;53.112;8.896;2023-01-25T00:51:04;103769.03;;;1.39;77.40
5126;BME280;63008;53.112;8.896;2023-01-25T00:53:05;103767.97;;;1.34;77.55
5126;BME280;63008;53.112;8.896;2023-01-25T00:55:07;103766.47;;;1.31;77.62
5126;BME280;63008;53.112;8.896;2023-01-25T00:57:08;103769.19;;;1.31;77.99
5126;BME280;63008;53.112;8.896;2023-01-25T00:59:09;103770.25;;;1.37;77.75
5126;BME280;63008;53.112;8.896;2023-01-25T01:01:10;103771.97;;;1.44;77.92
5126;BME280;63008;53.112;8.896;2023-01-25T01:03:11;103767.81;;;1.42;78.08
5126;BME280;63008;53.112;8.896;2023-01-25T01:05:12;103773.59;;;1.39;77.76
5126;BME280;63008;53.112;8.896;2023-01-25T01:07:14;103768.81;;;1.41;78.11
5126;BME280;63008;53.112;8.896;2023-01-25T01:09:16;103759.72;;;1.42;78.18
5126;BME280;63008;53.112;8.896;2023-01-25T01:11:18;103755.94;;;1.36;78.52
5126;BME280;63008;53.112;8.896;2023-01-25T01:13:19;103762.88;;;1.18;78.75
5126;BME280;63008;53.112;8.896;2023-01-25T01:15:21;103763.50;;;1.20;78.90
5126;BME280;63008;53.112;8.896;2023-01-25T01:17:21;103763.03;;;1.10;79.24
5126;BME280;63008;53.112;8.896;2023-01-25T01:19:23;103761.88;;;0.98;80.00
5126;BME280;63008;53.112;8.896;2023-01-25T01:21:23;103755.50;;;1.05;79.90
5126;BME280;63008;53.112;8.896;2023-01-25T01:23:25;103752.69;;;0.92;80.17
5126;BME280;63008;53.112;8.896;2023-01-25T01:25:27;103750.16;;;1.12;80.14
5126;BME280;63008;53.112;8.896;2023-01-25T01:27:29;103747.22;;;1.13;79.32
5126;BME280;63008;53.112;8.896;2023-01-25T01:29:30;103750.94;;;1.06;79.59
5126;BME280;63008;53.112;8.896;2023-01-25T01:31:31;103743.47;;;1.14;79.80
5126;BME280;63008;53.112;8.896;2023-01-25T01:33:32;103750.44;;;1.23;78.96
5126;BME280;63008;53.112;8.896;2023-01-25T01:35:33;103746.25;;;1.21;79.17
5126;BME280;63008;53.112;8.896;2023-01-25T01:37:34;103752.44;;;1.15;79.86
5126;BME280;63008;53.112;8.896;2023-01-25T01:39:35;103740.16;;;1.12;79.92
5126;BME280;63008;53.112;8.896;2023-01-25T01:41:36;103742.84;;;1.12;79.64
5126;BME280;63008;53.112;8.896;2023-01-25T01:43:37;103748.72;;;1.16;79.65
5126;BME280;63008;53.112;8.896;2023-01-25T01:47:46;103745.66;;;1.25;78.88
5126;BME280;63008;53.112;8.896;2023-01-25T01:49:54;103741.47;;;1.23;78.69
5126;BME280;63008;53.112;8.896;2023-01-25T01:52:00;103737.09;;;1.22;78.03
5126;BME280;63008;53.112;8.896;2023-01-25T01:54:20;103742.72;;;1.20;78.59
5126;BME280;63008;53.112;8.896;2023-01-25T01:56:31;103727.13;;;1.22;78.73
5126;BME280;63008;53.112;8.896;2023-01-25T01:58:35;103731.72;;;1.28;78.33
5126;BME280;63008;53.112;8.896;2023-01-25T02:00:38;103729.25;;;1.27;78.54
5126;BME280;63008;53.112;8.896;2023-01-25T02:02:41;103721.53;;;1.30;78.45
5126;BME280;63008;53.112;8.896;2023-01-25T02:04:45;103731.31;;;1.25;78.18
5126;BME280;63008;53.112;8.896;2023-01-25T02:07:39;103714.69;;;1.28;78.49
5126;BME280;63008;53.112;8.896;2023-01-25T02:09:18;103707.41;;;1.35;78.25
5126;BME280;63008;53.112;8.896;2023-01-25T02:11:20;103703.81;;;1.21;78.04
5126;BME280;63008;53.112;8.896;2023-01-25T02:13:21;103694.25;;;1.25;78.17
5126;BME280;63008;53.112;8.896;2023-01-25T02:15:22;103692.00;;;1.29;78.41
5126;BME280;63008;53.112;8.896;2023-01-25T02:17:32;103685.53;;;1.23;78.63
5126;BME280;63008;53.112;8.896;2023-01-25T02:19:45;103683.31;;;1.33;78.26
5126;BME280;63008;53.112;8.896;2023-01-25T02:21:51;103683.00;;;1.22;78.57
5126;BME280;63008;53.112;8.896;2023-01-25T02:24:00;103688.84;;;1.25;78.74
5126;BME280;63008;53.112;8.896;2023-01-25T02:26:05;103675.78;;;1.29;78.31
5126;BME280;63008;53.112;8.896;2023-01-25T02:28:13;103689.50;;;1.27;78.53
5126;BME280;63008;53.112;8.896;2023-01-25T02:30:16;103689.41;;;1.08;78.90
5126;BME280;63008;53.112;8.896;2023-01-25T02:32:17;103684.41;;;1.11;78.79
5126;BME280;63008;53.112;8.896;2023-01-25T02:34:18;103691.91;;;1.16;78.58
5126;BME280;63008;53.112;8.896;2023-01-25T02:36:26;103682.59;;;1.18;78.64
5126;BME280;63008;53.112;8.896;2023-01-25T02:38:30;103667.00;;;1.20;78.64
5126;BME280;63008;53.112;8.896;2023-01-25T02:40:40;103682.22;;;1.28;78.48
5126;BME280;63008;53.112;8.896;2023-01-25T02:42:43;103676.81;;;1.28;78.63
5126;BME280;63008;53.112;8.896;2023-01-25T02:44:45;103673.47;;;1.26;78.82
5126;BME280;63008;53.112;8.896;2023-01-25T02:46:47;103674.75;;;1.30;78.67
5126;BME280;63008;53.112;8.896;2023-01-25T02:48:48;103664.53;;;1.25;78.65
5126;BME280;63008;53.112;8.896;2023-01-25T02:50:49;103673.47;;;1.26;78.45
5126;BME280;63008;53.112;8.896;2023-01-25T02:52:50;103682.19;;;1.21;78.42
5126;BME280;63008;53.112;8.896;2023-01-25T02:54:51;103682.19;;;1.21;78.77
5126;BME280;63008;53.112;8.896;2023-01-25T02:56:52;103673.03;;;1.22;78.76
5126;BME280;63008;53.112;8.896;2023-01-25T02:58:53;103672.41;;;1.20;78.70
5126;BME280;63008;53.112;8.896;2023-01-25T03:00:55;103681.75;;;1.18;78.53
5126;BME280;63008;53.112;8.896;2023-01-25T03:02:57;103673.63;;;1.18;79.03
5126;BME280;63008;53.112;8.896;2023-01-25T03:04:58;103673.41;;;1.13;79.22
5126;BME280;63008;53.112;8.896;2023-01-25T03:06:59;103665.47;;;1.11;79.20
5126;BME280;63008;53.112;8.896;2023-01-25T03:09:01;103660.91;;;1.12;79.03
5126;BME280;63008;53.112;8.896;2023-01-25T03:11:03;103653.03;;;1.17;79.15
5126;BME280;63008;53.112;8.896;2023-01-25T03:13:05;103651.97;;;1.11;79.43
5126;BME280;63008;53.112;8.896;2023-01-25T03:15:06;103655.53;;;1.18;79.45
5126;BME280;63008;53.112;8.896;2023-01-25T03:17:07;103649.91;;;1.20;79.00
5126;BME280;63008;53.112;8.896;2023-01-25T03:19:08;103647.63;;;1.17;79.69
5126;BME280;63008;53.112;8.896;2023-01-25T03:21:15;103648.06;;;1.20;79.31
5126;BME280;63008;53.112;8.896;2023-01-25T03:23:17;103642.66;;;1.20;79.12
5126;BME280;63008;53.112;8.896;2023-01-25T03:25:18;103643.91;;;1.24;79.04
5126;BME280;63008;53.112;8.896;2023-01-25T03:27:19;103637.25;;;1.20;79.19
5126;BME280;63008;53.112;8.896;2023-01-25T03:29:20;103639.09;;;1.20;79.36
5126;BME280;63008;53.112;8.896;2023-01-25T03:31:20;103639.91;;;1.14;79.11
5126;BME280;63008;53.112;8.896;2023-01-25T03:33:21;103639.91;;;1.14;78.99
5126;BME280;63008;53.112;8.896;2023-01-25T03:35:22;103639.66;;;1.02;79.34
5126;BME280;63008;53.112;8.896;2023-01-25T03:37:24;103634.44;;;1.01;79.50
5126;BME280;63008;53.112;8.896;2023-01-25T03:39:30;103639.28;;;1.12;79.17
5126;BME280;63008;53.112;8.896;2023-01-25T03:41:31;103626.94;;;1.03;79.67
5126;BME280;63008;53.112;8.896;2023-01-25T03:43:32;103625.28;;;1.02;79.80
5126;BME280;63008;53.112;8.896;2023-01-25T03:45:33;103629.66;;;1.03;79.96
5126;BME280;63008;53.112;8.896;2023-01-25T03:47:34;103618.63;;;0.98;80.17
5126;BME280;63008;53.112;8.896;2023-01-25T03:49:35;103617.13;;;0.95;80.45
5126;BME280;63008;53.112;8.896;2023-01-25T03:51:37;103618.19;;;0.94;80.44
5126;BME280;63008;53.112;8.896;2023-01-25T03:53:37;103609.50;;;1.05;80.45
5126;BME280;63008;53.112;8.896;2023-01-25T03:55:38;103609.31;;;1.07;79.98
5126;BME280;63008;53.112;8.896;2023-01-25T03:57:39;103605.19;;;1.11;80.24
5126;BME280;63008;53.112;8.896;2023-01-25T03:59:40;103610.38;;;1.12;80.38
5126;BME280;63008;53.112;8.896;2023-01-25T04:01:41;103609.78;;;1.17;79.93
5126;BME280;63008;53.112;8.896;2023-01-25T04:03:42;103604.16;;;1.18;79.94
5126;BME280;63008;53.112;8.896;2023-01-25T04:05:43;103603.94;;;1.20;79.81
5126;BME280;63008;53.112;8.896;2023-01-25T04:07:44;103604.59;;;1.22;79.96
5126;BME280;63008;53.112;8.896;2023-01-25T04:09:45;103606.09;;;1.31;79.78
5126;BME280;63008;53.112;8.896;2023-01-25T04:11:49;103600.69;;;1.31;79.75
5126;BME280;63008;53.112;8.896;2023-01-25T04:13:50;103588.81;;;1.32;79.49
5126;BME280;63008;53.112;8.896;2023-01-25T04:15:52;103597.28;;;1.16;79.85
5126;BME280;63008;53.112;8.896;2023-01-25T04:17:53;103602.09;;;1.20;79.78
5126;BME280;63008;53.112;8.896;2023-01-25T04:19:54;103597.09;;;1.17;79.82
5126;BME280;63008;53.112;8.896;2023-01-25T04:21:54;103594.78;;;1.08;79.79
5126;BME280;63008;53.112;8.896;2023-01-25T04:23:55;103593.53;;;1.17;79.77
5126;BME280;63008;53.112;8.896;2023-01-25T04:26:01;103599.38;;;1.20;79.34
5126;BME280;63008;53.112;8.896;2023-01-25T04:28:04;103592.53;;;1.24;79.21
5126;BME280;63008;53.112;8.896;2023-01-25T04:30:06;103587.94;;;1.18;79.26
5126;BME280;63008;53.112;8.896;2023-01-25T04:32:07;103588.72;;;1.06;79.86
5126;BME280;63008;53.112;8.896;2023-01-25T04:34:08;103587.66;;;1.00;80.20
5126;BME280;63008;53.112;8.896;2023-01-25T04:36:12;103592.44;;;1.05;79.85
5126;BME280;63008;53.112;8.896;2023-01-25T04:38:13;103593.72;;;1.09;80.07
5126;BME280;63008;53.112;8.896;2023-01-25T04:40:14;103595.16;;;1.05;79.82
5126;BME280;63008;53.112;8.896;2023-01-25T04:42:15;103597.44;;;1.01;79.87
5126;BME280;63008;53.112;8.896;2023-01-25T04:44:16;103594.50;;;1.03;80.04
5126;BME280;63008;53.112;8.896;2023-01-25T04:46:17;103597.66;;;1.06;79.81
5126;BME280;63008;53.112;8.896;2023-01-25T04:48:18;103592.41;;;0.92;79.92
5126;BME280;63008;53.112;8.896;2023-01-25T04:50:19;103596.19;;;0.97;80.30
5126;BME280;63008;53.112;8.896;2023-01-25T04:52:20;103591.41;;;0.99;79.80
5126;BME280;63008;53.112;8.896;2023-01-25T04:54:21;103587.66;;;1.00;79.94
5126;BME280;63008;53.112;8.896;2023-01-25T04:56:22;103585.59;;;1.02;80.06
5126;BME280;63008;53.112;8.896;2023-01-25T04:58:23;103574.56;;;0.97;79.97
5126;BME280;63008;53.112;8.896;2023-01-25T05:00:24;103574.19;;;1.07;80.12
5126;BME280;63008;53.112;8.896;2023-01-25T05:02:26;103569.00;;;1.12;80.35
5126;BME280;63008;53.112;8.896;2023-01-25T05:04:27;103567.69;;;1.01;79.88
5126;BME280;63008;53.112;8.896;2023-01-25T05:06:28;103560.56;;;0.87;80.35
5126;BME280;63008;53.112;8.896;2023-01-25T05:08:29;103564.06;;;0.81;80.52
5126;BME280;63008;53.112;8.896;2023-01-25T05:10:30;103568.44;;;0.82;80.66
5126;BME280;63008;53.112;8.896;2023-01-25T05:12:31;103558.63;;;0.75;80.52
5126;BME280;63008;53.112;8.896;2023-01-25T05:14:32;103567.78;;;0.74;80.59
5126;BME280;63008;53.112;8.896;2023-01-25T05:16:33;103559.84;;;0.72;80.55
5126;BME280;63008;53.112;8.896;2023-01-25T05:18:34;103558.63;;;0.75;80.51
5126;BME280;63008;53.112;8.896;2023-01-25T05:20:35;103573.81;;;0.76;80.45
5126;BME280;63008;53.112;8.896;2023-01-25T05:22:36;103561.53;;;0.73;80.25
5126;BME280;63008;53.112;8.896;2023-01-25T05:24:37;103559.63;;;0.67;80.01
5126;BME280;63008;53.112;8.896;2023-01-25T05:26:41;103560.22;;;0.63;80.18
5126;BME280;63008;53.112;8.896;2023-01-25T05:29:02;103559.41;;;0.62;80.12
5126;BME280;63008;53.112;8.896;2023-01-25T05:31:03;103561.06;;;0.63;80.17
5126;BME280;63008;53.112;8.896;2023-01-25T05:33:04;103562.09;;;0.62;79.88
5126;BME280;63008;53.112;8.896;2023-01-25T05:35:06;103565.03;;;0.67;80.12
5126;BME280;63008;53.112;8.896;2023-01-25T05:37:08;103563.41;;;0.73;79.99
5126;BME280;63008;53.112;8.896;2023-01-25T05:39:10;103562.78;;;0.71;79.89
5126;BME280;63008;53.112;8.896;2023-01-25T05:41:11;103557.38;;;0.71;80.06
5126;BME280;63008;53.112;8.896;2023-01-25T05:43:12;103554.00;;;0.62;80.35
5126;BME280;63008;53.112;8.896;2023-01-25T05:45:13;103554.00;;;0.69;80.22
5126;BME280;63008;53.112;8.896;2023-01-25T05:47:16;103554.63;;;0.64;80.18
5126;BME280;63008;53.112;8.896;2023-01-25T05:49:17;103543.81;;;0.64;80.21
5126;BME280;63008;53.112;8.896;2023-01-25T05:51:18;103560.44;;;0.68;80.00
5126;BME280;63008;53.112;8.896;2023-01-25T05:53:26;103554.00;;;0.69;79.68
5126;BME280;63008;53.112;8.896;2023-01-25T05:55:27;103558.19;;;0.71;79.49
5126;BME280;63008;53.112;8.896;2023-01-25T05:57:28;103559.81;;;0.66;79.64
5126;BME280;63008;53.112;8.896;2023-01-25T05:59:29;103558.56;;;0.62;79.63
5126;BME280;63008;53.112;8.896;2023-01-25T06:01:30;103560.44;;;0.68;79.88
5126;BME280;63008;53.112;8.896;2023-01-25T06:03:32;103558.78;;;0.67;79.63
5126;BME280;63008;53.112;8.896;2023-01-25T06:05:33;103551.72;;;0.66;80.12
5126;BME280;63008;53.112;8.896;2023-01-25T06:07:35;103548.22;;;0.72;80.18
5126;BME280;63008;53.112;8.896;2023-01-25T06:09:36;103541.78;;;0.73;80.97
5126;BME280;63008;53.112;8.896;2023-01-25T06:11:37;103541.97;;;0.71;80.35
5126;BME280;63008;53.112;8.896;2023-01-25T06:13:38;103542.16;;;0.63;80.22
5126;BME280;63008;53.112;8.896;2023-01-25T06:15:39;103536.09;;;0.61;80.95
5126;BME280;63008;53.112;8.896;2023-01-25T06:17:40;103531.53;;;0.62;80.76
5126;BME280;63008;53.112;8.896;2023-01-25T06:19:41;103530.59;;;0.82;80.31
5126;BME280;63008;53.112;8.896;2023-01-25T06:21:42;103527.94;;;0.95;79.53
5126;BME280;63008;53.112;8.896;2023-01-25T06:23:43;103533.59;;;1.00;79.23
5126;BME280;63008;53.112;8.896;2023-01-25T06:25:44;103536.44;;;0.86;79.21
5126;BME280;63008;53.112;8.896;2023-01-25T06:27:45;103536.44;;;0.86;79.68
5126;BME280;63008;53.112;8.896;2023-01-25T06:29:46;103539.13;;;0.86;79.68
5126;BME280;63008;53.112;8.896;2023-01-25T06:31:47;103533.53;;;0.87;79.60
5126;BME280;63008;53.112;8.896;2023-01-25T06:33:49;103531.16;;;0.71;80.11
5126;BME280;63008;53.112;8.896;2023-01-25T06:35:50;103535.91;;;0.63;80.79
5126;BME280;63008;53.112;8.896;2023-01-25T06:37:55;103535.88;;;0.56;80.61
5126;BME280;63008;53.112;8.896;2023-01-25T06:39:56;103532.06;;;0.44;80.60
5126;BME280;63008;53.112;8.896;2023-01-25T06:41:57;103535.16;;;0.41;80.67
5126;BME280;63008;53.112;8.896;2023-01-25T06:43:58;103545.19;;;0.47;80.72
5126;BME280;63008;53.112;8.896;2023-01-25T06:46:04;103546.25;;;0.59;80.07
5126;BME280;63008;53.112;8.896;2023-01-25T06:48:05;103540.59;;;0.48;80.28
5126;BME280;63008;53.112;8.896;2023-01-25T06:50:07;103555.56;;;0.50;80.46
5126;BME280;63008;53.112;8.896;2023-01-25T06:52:08;103549.78;;;0.53;80.64
5126;BME280;63008;53.112;8.896;2023-01-25T06:54:09;103547.50;;;0.57;80.66
5126;BME280;63008;53.112;8.896;2023-01-25T06:56:15;103539.78;;;0.47;81.02
5126;BME280;63008;53.112;8.896;2023-01-25T06:58:17;103539.16;;;0.45;81.09
5126;BME280;63008;53.112;8.896;2023-01-25T07:00:18;103542.03;;;0.44;81.21
5126;BME280;63008;53.112;8.896;2023-01-25T07:02:19;103545.41;;;0.52;80.96
5126;BME280;63008;53.112;8.896;2023-01-25T07:04:20;103543.34;;;0.54;80.94
5126;BME280;63008;53.112;8.896;2023-01-25T07:06:22;103540.88;;;0.59;80.95
5126;BME280;63008;53.112;8.896;2023-01-25T07:08:23;103531.06;;;0.52;80.71
5126;BME280;63008;53.112;8.896;2023-01-25T07:10:24;103532.75;;;0.53;80.58
5126;BME280;63008;53.112;8.896;2023-01-25T07:12:27;103524.34;;;0.41;81.00
5126;BME280;63008;53.112;8.896;2023-01-25T07:14:28;103516.28;;;0.48;80.27
5126;BME280;63008;53.112;8.896;2023-01-25T07:16:30;103515.88;;;0.44;80.74
5126;BME280;63008;53.112;8.896;2023-01-25T07:18:36;103511.13;;;0.53;80.76
5126;BME280;63008;53.112;8.896;2023-01-25T07:20:37;103514.22;;;0.50;80.58
5126;BME280;63008;53.112;8.896;2023-01-25T07:22:38;103516.28;;;0.48;80.52
5126;BME280;63008;53.112;8.896;2023-01-25T07:24:39;103506.75;;;0.52;80.72
5126;BME280;63008;53.112;8.896;2023-01-25T07:26:40;103509.66;;;0.50;80.49
5126;BME280;63008;53.112;8.896;2023-01-25T07:28:41;103509.44;;;0.52;80.88
5126;BME280;63008;53.112;8.896;2023-01-25T07:30:42;103500.09;;;0.48;80.61
5126;BME280;63008;53.112;8.896;2023-01-25T07:32:44;103510.28;;;0.52;80.69
5126;BME280;63008;53.112;8.896;2023-01-25T07:34:44;103500.56;;;0.58;80.45
5126;BME280;63008;53.112;8.896;2023-01-25T07:36:45;103501.38;;;0.58;80.36
5126;BME280;63008;53.112;8.896;2023-01-25T07:38:48;103497.47;;;0.61;80.84
5126;BME280;63008;53.112;8.896;2023-01-25T07:40:52;103495.81;;;0.66;80.35
5126;BME280;63008;53.112;8.896;2023-01-25T07:42:53;103503.06;;;0.66;80.25
5126;BME280;63008;53.112;8.896;2023-01-25T07:44:54;103504.34;;;0.70;80.34
5126;BME280;63008;53.112;8.896;2023-01-25T07:46:55;103504.75;;;0.67;80.34
5126;BME280;63008;53.112;8.896;2023-01-25T07:48:56;103504.72;;;0.60;80.26
5126;BME280;63008;53.112;8.896;2023-01-25T07:51:02;103501.38;;;0.58;80.26
5126;BME280;63008;53.112;8.896;2023-01-25T07:53:12;103497.22;;;0.56;80.75
5126;BME280;63008;53.112;8.896;2023-01-25T07:55:13;103495.16;;;0.58;80.71
5126;BME280;63008;53.112;8.896;2023-01-25T07:57:15;103500.97;;;0.61;80.74
5126;BME280;63008;53.112;8.896;2023-01-25T07:59:16;103499.53;;;0.59;80.49
5126;BME280;63008;53.112;8.896;2023-01-25T08:01:19;103497.63;;;0.59;80.54
5126;BME280;63008;53.112;8.896;2023-01-25T08:03:20;103492.66;;;0.56;80.50
5126;BME280;63008;53.112;8.896;2023-01-25T08:05:21;103483.69;;;0.49;80.43
5126;BME280;63008;53.112;8.896;2023-01-25T08:07:22;103482.88;;;0.55;80.52
5126;BME280;63008;53.112;8.896;2023-01-25T08:09:23;103483.84;;;0.41;80.21
5126;BME280;63008;53.112;8.896;2023-01-25T08:11:26;103482.13;;;0.34;80.57
5126;BME280;63008;53.112;8.896;2023-01-25T08:13:28;103486.53;;;0.41;80.86
5126;BME280;63008;53.112;8.896;2023-01-25T08:15:29;103482.84;;;0.49;80.76
5126;BME280;63008;53.112;8.896;2023-01-25T08:17:30;103476.66;;;0.55;80.55
5126;BME280;63008;53.112;8.896;2023-01-25T08:19:34;103478.91;;;0.51;80.40
5126;BME280;63008;53.112;8.896;2023-01-25T08:21:35;103481.75;;;0.43;80.80
5126;BME280;63008;53.112;8.896;2023-01-25T08:23:36;103488.41;;;0.41;80.63
5126;BME280;63008;53.112;8.896;2023-01-25T08:25:37;103484.25;;;0.38;81.03
5126;BME280;63008;53.112;8.896;2023-01-25T08:27:39;103490.94;;;0.49;80.23
5126;BME280;63008;53.112;8.896;2023-01-25T08:29:40;103490.72;;;0.44;80.59
5126;BME280;63008;53.112;8.896;2023-01-25T08:31:41;103480.09;;;0.42;80.63
5126;BME280;63008;53.112;8.896;2023-01-25T08:33:44;103480.19;;;0.21;81.33
5126;BME280;63008;53.112;8.896;2023-01-25T08:35:55;103478.16;;;0.30;81.42
5126;BME280;63008;53.112;8.896;2023-01-25T08:37:56;103470.69;;;0.32;81.04
5126;BME280;63008;53.112;8.896;2023-01-25T08:39:57;103470.09;;;0.36;81.31
5126;BME280;63008;53.112;8.896;2023-01-25T08:41:59;103461.19;;;0.36;81.02
5126;BME280;63008;53.112;8.896;2023-01-25T08:44:00;103462.59;;;0.32;80.90
5126;BME280;63008;53.112;8.896;2023-01-25T08:46:02;103460.53;;;0.34;81.01
5126;BME280;63008;53.112;8.896;2023-01-25T08:48:03;103459.72;;;0.33;81.08
5126;BME280;63008;53.112;8.896;2023-01-25T08:50:04;103449.97;;;0.39;81.19
5126;BME280;63008;53.112;8.896;2023-01-25T08:52:06;103444.84;;;0.50;81.97
5126;BME280;63008;53.112;8.896;2023-01-25T08:54:10;103438.22;;;0.53;81.79
5126;BME280;63008;53.112;8.896;2023-01-25T08:56:13;103436.53;;;0.45;81.40
5126;BME280;63008;53.112;8.896;2023-01-25T08:58:15;103431.34;;;0.50;80.83
5126;BME280;63008;53.112;8.896;2023-01-25T09:00:19;103431.75;;;0.47;80.95
5126;BME280;63008;53.112;8.896;2023-01-25T09:02:20;103435.66;;;0.45;81.48
5126;BME280;63008;53.112;8.896;2023-01-25T09:04:21;103431.31;;;0.44;81.16
5126;BME280;63008;53.112;8.896;2023-01-25T09:06:25;103428.59;;;0.44;81.14
5126;BME280;63008;53.112;8.896;2023-01-25T09:08:26;103424.44;;;0.41;81.49
5126;BME280;63008;53.112;8.896;2023-01-25T09:10:27;103429.00;;;0.41;81.62
5126;BME280;63008;53.112;8.896;2023-01-25T09:12:28;103416.59;;;0.53;81.19
5126;BME280;63008;53.112;8.896;2023-01-25T09:14:29;103426.75;;;0.44;81.21
5126;BME280;63008;53.112;8.896;2023-01-25T09:16:30;103413.59;;;0.35;81.31
5126;BME280;63008;53.112;8.896;2023-01-25T09:18:32;103414.19;;;0.24;81.50
5126;BME280;63008;53.112;8.896;2023-01-25T09:20:33;103411.25;;;0.25;81.78
5126;BME280;63008;53.112;8.896;2023-01-25T09:22:34;103413.81;;;0.33;81.99
5126;BME280;63008;53.112;8.896;2023-01-25T09:24:35;103411.16;;;0.40;81.65
5126;BME280;63008;53.112;8.896;2023-01-25T09:26:38;103412.59;;;0.42;81.47
5126;BME280;63008;53.112;8.896;2023-01-25T09:28:40;103410.31;;;0.46;81.44
5126;BME280;63008;53.112;8.896;2023-01-25T09:30:42;103401.59;;;0.44;81.40
5126;BME280;63008;53.112;8.896;2023-01-25T09:32:43;103405.97;;;0.45;81.91
5126;BME280;63008;53.112;8.896;2023-01-25T09:34:44;103395.63;;;0.55;81.12
5126;BME280;63008;53.112;8.896;2023-01-25T09:36:45;103393.72;;;0.49;81.55
5126;BME280;63008;53.112;8.896;2023-01-25T09:38:46;103399.78;;;0.57;81.39
5126;BME280;63008;53.112;8.896;2023-01-25T09:43:19;103393.56;;;0.57;81.43
5126;BME280;63008;53.112;8.896;2023-01-25T09:45:35;103394.38;;;0.57;81.34
5126;BME280;63008;53.112;8.896;2023-01-25T09:55:12;103401.00;;;0.48;81.50
5126;BME280;63008;53.112;8.896;2023-01-25T09:57:17;103401.63;;;0.50;81.53
5126;BME280;63008;53.112;8.896;2023-01-25T09:59:22;103392.50;;;0.51;81.60
5126;BME280;63008;53.112;8.896;2023-01-25T10:03:41;103384.38;;;0.51;81.71
5126;BME280;63008;53.112;8.896;2023-01-25T10:05:50;103391.00;;;0.49;81.70
5126;BME280;63008;53.112;8.896;2023-01-25T10:08:18;103388.94;;;0.44;82.07
5126;BME280;63008;53.112;8.896;2023-01-25T10:10:29;103388.72;;;0.46;81.96
5126;BME280;63008;53.112;8.896;2023-01-25T10:12:36;103382.69;;;0.44;82.11
5126;BME280;63008;53.112;8.896;2023-01-25T10:14:37;103380.19;;;0.42;81.75
5126;BME280;63008;53.112;8.896;2023-01-25T10:16:50;103382.47;;;0.39;81.99
5126;BME280;63008;53.112;8.896;2023-01-25T10:19:06;103368.34;;;0.37;82.45
5126;BME280;63008;53.112;8.896;2023-01-25T10:21:11;103368.16;;;0.45;82.37
5126;BME280;63008;53.112;8.896;2023-01-25T10:25:44;103356.53;;;0.51;82.35
5126;BME280;63008;53.112;8.896;2023-01-25T10:28:22;103361.56;;;0.54;82.24
5126;BME280;63008;53.112;8.896;2023-01-25T10:32:32;103349.50;;;0.63;81.81
5126;BME280;63008;53.112;8.896;2023-01-25T10:34:39;103349.91;;;0.60;81.79
5126;BME280;63008;53.112;8.896;2023-01-25T10:36:42;103342.19;;;0.44;82.31
5126;BME280;63008;53.112;8.896;2023-01-25T10:38:47;103335.53;;;0.40;82.81
5126;BME280;63008;53.112;8.896;2023-01-25T10:41:00;103331.78;;;0.41;82.87
5126;BME280;63008;53.112;8.896;2023-01-25T10:43:12;103325.78;;;0.39;82.89
5126;BME280;63008;53.112;8.896;2023-01-25T10:45:16;103327.22;;;0.41;82.84
5126;BME280;63008;53.112;8.896;2023-01-25T10:47:22;103324.75;;;0.46;82.80
5126;BME280;63008;53.112;8.896;2023-01-25T10:49:47;103323.25;;;0.37;83.08
5126;BME280;63008;53.112;8.896;2023-01-25T10:51:50;103321.16;;;0.33;83.49
5126;BME280;63008;53.112;8.896;2023-01-25T10:54:01;103321.56;;;0.30;83.49
5126;BME280;63008;53.112;8.896;2023-01-25T10:56:04;103323.88;;;0.26;83.90
5126;BME280;63008;53.112;8.896;2023-01-25T10:58:50;103312.41;;;0.24;83.97
5126;BME280;63008;53.112;8.896;2023-01-25T11:00:50;103309.31;;;0.34;83.88
5126;BME280;63008;53.112;8.896;2023-01-25T11:02:52;103305.19;;;0.31;84.20
5126;BME280;63008;53.112;8.896;2023-01-25T11:04:53;103296.84;;;0.33;84.16
5126;BME280;63008;53.112;8.896;2023-01-25T11:06:54;103298.94;;;0.31;84.20
5126;BME280;63008;53.112;8.896;2023-01-25T11:08:55;103290.41;;;0.34;84.61
5126;BME280;63008;53.112;8.896;2023-01-25T11:10:57;103283.97;;;0.35;84.29
5126;BME280;63008;53.112;8.896;2023-01-25T11:13:18;103268.59;;;0.22;85.09
5126;BME280;63008;53.112;8.896;2023-01-25T11:15:24;103278.78;;;0.27;85.08
5126;BME280;63008;53.112;8.896;2023-01-25T11:17:29;103274.22;;;0.34;84.87